EDV2323 KDTW-CYYZ
Flight info
| Callsign | EDV2323 |
|---|---|
| Flight time | 0h 44m |
| Altitude | 25000 |
| Route | ZETTR4 TANKO DCT APDAX NUBER6 |
| Aircraft | CRJ9/M-SDFGIRWY/S |
Departure
| Time | 2026-05-04 17:08 |
|---|---|
| Airport | Detroit Metropolitan Wayne County Airport (KDTW) |
Arrival
| Time | 2026-05-04 17:53 |
|---|---|
| Airport | Toronto Pearson International Airport (CYYZ) |
| Time | Latitude | Longitude | Altitude | Speed | Heading |
|---|---|---|---|---|---|
| 2026-05-04 16:50 | 42.20801 | -83.36215 | 644 ft | 0 kts | 299° |
| 2026-05-04 16:55 | 42.20782 | -83.36170 | 644 ft | 3 kts | 303° |
| 2026-05-04 16:55 | 42.20759 | -83.36154 | 644 ft | 2 kts | 28° |
| 2026-05-04 16:56 | 42.20735 | -83.36171 | 644 ft | 1 kts | 29° |
| 2026-05-04 16:56 | 42.20735 | -83.36172 | 644 ft | 1 kts | 29° |
| 2026-05-04 17:00 | 42.20806 | -83.36119 | 644 ft | 8 kts | 29° |
| 2026-05-04 17:00 | 42.21024 | -83.35957 | 644 ft | 15 kts | 28° |
| 2026-05-04 17:01 | 42.21227 | -83.35808 | 646 ft | 17 kts | 28° |
| 2026-05-04 17:01 | 42.21443 | -83.35651 | 644 ft | 18 kts | 28° |
| 2026-05-04 17:02 | 42.21548 | -83.35385 | 644 ft | 18 kts | 89° |
| 2026-05-04 17:02 | 42.21576 | -83.35061 | 644 ft | 18 kts | 48° |
| 2026-05-04 17:03 | 42.21666 | -83.34946 | 644 ft | 18 kts | 43° |
| 2026-05-04 17:03 | 42.21756 | -83.34831 | 647 ft | 18 kts | 44° |
| 2026-05-04 17:03 | 42.21839 | -83.34547 | 646 ft | 16 kts | 76° |
| 2026-05-04 17:04 | 42.22027 | -83.34376 | 644 ft | 17 kts | 28° |
| 2026-05-04 17:04 | 42.22244 | -83.34216 | 644 ft | 18 kts | 28° |
| 2026-05-04 17:05 | 42.22470 | -83.34049 | 645 ft | 19 kts | 28° |
| 2026-05-04 17:05 | 42.22703 | -83.33877 | 644 ft | 20 kts | 28° |
| 2026-05-04 17:06 | 42.22848 | -83.33686 | 642 ft | 13 kts | 117° |
| 2026-05-04 17:06 | 42.22776 | -83.33654 | 643 ft | 11 kts | 206° |
| 2026-05-04 17:07 | 42.22734 | -83.33685 | 644 ft | 0 kts | 208° |
| 2026-05-04 17:07 | 42.22733 | -83.33685 | 644 ft | 0 kts | 208° |
| 2026-05-04 17:07 | 42.22720 | -83.33694 | 646 ft | 5 kts | 208° |
| 2026-05-04 17:07 | 42.22592 | -83.33787 | 645 ft | 53 kts | 208° |
| 2026-05-04 17:08 | 42.22028 | -83.34204 | 644 ft | 128 kts | 208° |
| 2026-05-04 17:08 | 42.20175 | -83.35724 | 2078 ft | 154 kts | 217° |
| 2026-05-04 17:08 | 42.19216 | -83.36415 | 2915 ft | 171 kts | 199° |
| 2026-05-04 17:09 | 42.17867 | -83.36118 | 3272 ft | 228 kts | 154° |
| 2026-05-04 17:09 | 42.16491 | -83.34866 | 4090 ft | 247 kts | 158° |
| 2026-05-04 17:09 | 42.14838 | -83.34044 | 4883 ft | 260 kts | 172° |
| 2026-05-04 17:10 | 42.11125 | -83.32715 | 6657 ft | 292 kts | 169° |
| 2026-05-04 17:10 | 42.05384 | -83.29075 | 9575 ft | 337 kts | 129° |
| 2026-05-04 17:11 | 42.04384 | -83.26165 | 10531 ft | 348 kts | 113° |
| 2026-05-04 17:11 | 42.03367 | -83.23206 | 11490 ft | 349 kts | 121° |
| 2026-05-04 17:11 | 42.01657 | -83.17122 | 13315 ft | 366 kts | 91° |
| 2026-05-04 17:12 | 42.02118 | -83.13975 | 14092 ft | 371 kts | 66° |
| 2026-05-04 17:12 | 42.05110 | -83.09680 | 15444 ft | 367 kts | 20° |
| 2026-05-04 17:13 | 42.12576 | -83.08643 | 17819 ft | 368 kts | 2° |
| 2026-05-04 17:14 | 42.19964 | -83.04974 | 19803 ft | 392 kts | 25° |
| 2026-05-04 17:14 | 42.22272 | -83.03065 | 20393 ft | 396 kts | 27° |
| 2026-05-04 17:14 | 42.26943 | -82.99150 | 21545 ft | 403 kts | 26° |
| 2026-05-04 17:15 | 42.29286 | -82.97242 | 22087 ft | 406 kts | 25° |
| 2026-05-04 17:15 | 42.34225 | -82.93327 | 22622 ft | 417 kts | 25° |
| 2026-05-04 17:16 | 42.39282 | -82.89321 | 22707 ft | 426 kts | 25° |
| 2026-05-04 17:16 | 42.47088 | -82.83099 | 22698 ft | 441 kts | 25° |
| 2026-05-04 17:17 | 42.49747 | -82.80977 | 22695 ft | 446 kts | 25° |
| 2026-05-04 17:17 | 42.57610 | -82.74683 | 22691 ft | 457 kts | 25° |
| 2026-05-04 17:18 | 42.60353 | -82.72487 | 22688 ft | 460 kts | 25° |
| 2026-05-04 17:18 | 42.65903 | -82.68036 | 22690 ft | 466 kts | 25° |
| 2026-05-04 17:19 | 42.71515 | -82.63521 | 22694 ft | 471 kts | 25° |
| 2026-05-04 17:19 | 42.77189 | -82.58948 | 22700 ft | 475 kts | 25° |
| 2026-05-04 17:20 | 42.82755 | -82.54449 | 22707 ft | 479 kts | 25° |
| 2026-05-04 17:20 | 42.88508 | -82.49800 | 22706 ft | 482 kts | 25° |
| 2026-05-04 17:20 | 42.91389 | -82.47462 | 22699 ft | 481 kts | 26° |
| 2026-05-04 17:21 | 42.96943 | -82.42954 | 22702 ft | 480 kts | 25° |
| 2026-05-04 17:21 | 43.02514 | -82.37900 | 22678 ft | 489 kts | 41° |
| 2026-05-04 17:22 | 43.04492 | -82.34127 | 22679 ft | 498 kts | 60° |
| 2026-05-04 17:22 | 43.05545 | -82.29747 | 22696 ft | 502 kts | 78° |
| 2026-05-04 17:23 | 43.07713 | -82.15875 | 22700 ft | 498 kts | 69° |
| 2026-05-04 17:23 | 43.08882 | -82.11355 | 22699 ft | 497 kts | 68° |
| 2026-05-04 17:23 | 43.11034 | -82.02671 | 22701 ft | 498 kts | 70° |
| 2026-05-04 17:24 | 43.12052 | -81.98211 | 22700 ft | 498 kts | 70° |
| 2026-05-04 17:24 | 43.15189 | -81.84672 | 22707 ft | 497 kts | 70° |
| 2026-05-04 17:25 | 43.16233 | -81.80156 | 22705 ft | 497 kts | 70° |
| 2026-05-04 17:25 | 43.18248 | -81.71377 | 22697 ft | 497 kts | 70° |
| 2026-05-04 17:26 | 43.20319 | -81.62329 | 22697 ft | 497 kts | 70° |
| 2026-05-04 17:26 | 43.23403 | -81.48777 | 22704 ft | 496 kts | 70° |
| 2026-05-04 17:27 | 43.25454 | -81.39740 | 22713 ft | 496 kts | 71° |
| 2026-05-04 17:27 | 43.27433 | -81.30920 | 22361 ft | 496 kts | 71° |
| 2026-05-04 17:28 | 43.29384 | -81.21978 | 22293 ft | 483 kts | 71° |
| 2026-05-04 17:29 | 43.31989 | -81.09010 | 22245 ft | 469 kts | 74° |
| 2026-05-04 17:29 | 43.34346 | -80.96478 | 22163 ft | 459 kts | 72° |
| 2026-05-04 17:30 | 43.36822 | -80.83879 | 22087 ft | 452 kts | 73° |
| 2026-05-04 17:31 | 43.38474 | -80.75437 | 21275 ft | 465 kts | 73° |
| 2026-05-04 17:31 | 43.40947 | -80.62689 | 20072 ft | 480 kts | 73° |
| 2026-05-04 17:32 | 43.42658 | -80.53830 | 18986 ft | 472 kts | 73° |
| 2026-05-04 17:33 | 43.45112 | -80.41064 | 17297 ft | 449 kts | 74° |
| 2026-05-04 17:33 | 43.45915 | -80.36945 | 16695 ft | 443 kts | 72° |
| 2026-05-04 17:34 | 43.49189 | -80.25619 | 15199 ft | 424 kts | 65° |
| 2026-05-04 17:34 | 43.50266 | -80.21878 | 14702 ft | 415 kts | 67° |
| 2026-05-04 17:35 | 43.53173 | -80.11034 | 13277 ft | 390 kts | 68° |
| 2026-05-04 17:35 | 43.54993 | -80.04132 | 12298 ft | 376 kts | 68° |
| 2026-05-04 17:35 | 43.55842 | -80.00922 | 11880 ft | 369 kts | 68° |
| 2026-05-04 17:36 | 43.56686 | -79.97745 | 11451 ft | 364 kts | 68° |
| 2026-05-04 17:36 | 43.57518 | -79.94614 | 11044 ft | 359 kts | 68° |
| 2026-05-04 17:36 | 43.58370 | -79.91395 | 10669 ft | 355 kts | 68° |
| 2026-05-04 17:36 | 43.59252 | -79.88251 | 10273 ft | 349 kts | 62° |
| 2026-05-04 17:37 | 43.60725 | -79.85682 | 9896 ft | 338 kts | 36° |
| 2026-05-04 17:37 | 43.62618 | -79.83814 | 9501 ft | 331 kts | 29° |
| 2026-05-04 17:37 | 43.64550 | -79.82122 | 9080 ft | 328 kts | 28° |
| 2026-05-04 17:37 | 43.66467 | -79.80444 | 8670 ft | 325 kts | 29° |
| 2026-05-04 17:38 | 43.68344 | -79.78721 | 8264 ft | 322 kts | 30° |
| 2026-05-04 17:38 | 43.70173 | -79.76956 | 7865 ft | 320 kts | 31° |
| 2026-05-04 17:38 | 43.71982 | -79.75187 | 7482 ft | 317 kts | 31° |
| 2026-05-04 17:38 | 43.73779 | -79.73440 | 7100 ft | 314 kts | 31° |
| 2026-05-04 17:39 | 43.77064 | -79.69559 | 6360 ft | 313 kts | 45° |
| 2026-05-04 17:39 | 43.78549 | -79.67320 | 5990 ft | 311 kts | 46° |
| 2026-05-04 17:39 | 43.79989 | -79.65095 | 5611 ft | 309 kts | 46° |
| 2026-05-04 17:40 | 43.81318 | -79.63047 | 5155 ft | 311 kts | 47° |
| 2026-05-04 17:40 | 43.82711 | -79.60926 | 4688 ft | 312 kts | 46° |
| 2026-05-04 17:40 | 43.84194 | -79.58675 | 4181 ft | 312 kts | 46° |
| 2026-05-04 17:40 | 43.85668 | -79.56479 | 3701 ft | 310 kts | 46° |
| 2026-05-04 17:41 | 43.87130 | -79.54352 | 3326 ft | 305 kts | 45° |
| 2026-05-04 17:41 | 43.88591 | -79.52258 | 3141 ft | 292 kts | 46° |
| 2026-05-04 17:41 | 43.89976 | -79.50290 | 3081 ft | 278 kts | 46° |
| 2026-05-04 17:41 | 43.91276 | -79.48456 | 3008 ft | 264 kts | 45° |
| 2026-05-04 17:42 | 43.92536 | -79.46691 | 3000 ft | 250 kts | 46° |
| 2026-05-04 17:42 | 43.93728 | -79.45009 | 2982 ft | 240 kts | 46° |
| 2026-05-04 17:42 | 43.94516 | -79.43918 | 3008 ft | 233 kts | 45° |
| 2026-05-04 17:42 | 43.95997 | -79.41841 | 2977 ft | 223 kts | 49° |
| 2026-05-04 17:43 | 43.96621 | -79.39953 | 2851 ft | 213 kts | 92° |
| 2026-05-04 17:43 | 43.96476 | -79.38662 | 2862 ft | 191 kts | 123° |
| 2026-05-04 17:43 | 43.95639 | -79.37531 | 2857 ft | 155 kts | 174° |
| 2026-05-04 17:43 | 43.94647 | -79.37364 | 2896 ft | 141 kts | 182° |
| 2026-05-04 17:44 | 43.93724 | -79.37176 | 3332 ft | 126 kts | 180° |
| 2026-05-04 17:44 | 43.92864 | -79.36948 | 3617 ft | 134 kts | 180° |
| 2026-05-04 17:44 | 43.91874 | -79.36705 | 3720 ft | 152 kts | 180° |
| 2026-05-04 17:44 | 43.90823 | -79.36439 | 3833 ft | 155 kts | 180° |
| 2026-05-04 17:45 | 43.89722 | -79.36245 | 3663 ft | 164 kts | 192° |
| 2026-05-04 17:45 | 43.88746 | -79.36926 | 3362 ft | 157 kts | 223° |
| 2026-05-04 17:45 | 43.87910 | -79.37847 | 3213 ft | 149 kts | 222° |
| 2026-05-04 17:45 | 43.87124 | -79.38744 | 3127 ft | 143 kts | 223° |
| 2026-05-04 17:46 | 43.86369 | -79.39608 | 3068 ft | 138 kts | 223° |
| 2026-05-04 17:46 | 43.85649 | -79.40452 | 3021 ft | 133 kts | 224° |
| 2026-05-04 17:46 | 43.84958 | -79.41276 | 2997 ft | 129 kts | 224° |
| 2026-05-04 17:46 | 43.84295 | -79.42086 | 3019 ft | 125 kts | 225° |
| 2026-05-04 17:47 | 43.83660 | -79.42896 | 3042 ft | 124 kts | 224° |
| 2026-05-04 17:47 | 43.83052 | -79.43758 | 3021 ft | 125 kts | 224° |
| 2026-05-04 17:47 | 43.82420 | -79.44595 | 3000 ft | 129 kts | 224° |
| 2026-05-04 17:47 | 43.81755 | -79.45492 | 3053 ft | 134 kts | 225° |
| 2026-05-04 17:48 | 43.81098 | -79.46432 | 3094 ft | 140 kts | 226° |
| 2026-05-04 17:48 | 43.80442 | -79.47390 | 3057 ft | 145 kts | 226° |
| 2026-05-04 17:48 | 43.79736 | -79.48416 | 3031 ft | 148 kts | 226° |
| 2026-05-04 17:48 | 43.79024 | -79.49456 | 3025 ft | 148 kts | 226° |
| 2026-05-04 17:49 | 43.78332 | -79.50501 | 3007 ft | 145 kts | 226° |
| 2026-05-04 17:49 | 43.77666 | -79.51489 | 2963 ft | 140 kts | 226° |
| 2026-05-04 17:49 | 43.76976 | -79.52508 | 2705 ft | 147 kts | 226° |
| 2026-05-04 17:49 | 43.76289 | -79.53526 | 2541 ft | 141 kts | 225° |
| 2026-05-04 17:50 | 43.75629 | -79.54486 | 2391 ft | 134 kts | 224° |
| 2026-05-04 17:50 | 43.74982 | -79.55414 | 2224 ft | 136 kts | 224° |
| 2026-05-04 17:50 | 43.74314 | -79.56360 | 2018 ft | 138 kts | 224° |
| 2026-05-04 17:50 | 43.73647 | -79.57312 | 1799 ft | 140 kts | 225° |
| 2026-05-04 17:51 | 43.72994 | -79.58294 | 1617 ft | 135 kts | 224° |
| 2026-05-04 17:51 | 43.72370 | -79.59217 | 1430 ft | 127 kts | 224° |
| 2026-05-04 17:51 | 43.71760 | -79.60087 | 1280 ft | 124 kts | 224° |
| 2026-05-04 17:51 | 43.71163 | -79.60966 | 1101 ft | 127 kts | 224° |
| 2026-05-04 17:52 | 43.70555 | -79.61853 | 955 ft | 127 kts | 225° |
| 2026-05-04 17:52 | 43.69977 | -79.62701 | 808 ft | 125 kts | 224° |
| 2026-05-04 17:52 | 43.69393 | -79.63532 | 593 ft | 126 kts | 225° |
| 2026-05-04 17:52 | 43.68831 | -79.64347 | 563 ft | 100 kts | 226° |
| 2026-05-04 17:53 | 43.68542 | -79.64767 | 567 ft | 44 kts | 226° |
| 2026-05-04 17:53 | 43.68363 | -79.65013 | 568 ft | 26 kts | 213° |
| 2026-05-04 17:53 | 43.68210 | -79.65092 | 564 ft | 17 kts | 196° |
| 2026-05-04 17:53 | 43.68115 | -79.65082 | 568 ft | 13 kts | 137° |
| 2026-05-04 17:54 | 43.68116 | -79.64986 | 570 ft | 11 kts | 51° |
| 2026-05-04 17:54 | 43.68167 | -79.64912 | 573 ft | 11 kts | 46° |
| 2026-05-04 17:54 | 43.68219 | -79.64836 | 573 ft | 11 kts | 46° |
| 2026-05-04 17:54 | 43.68272 | -79.64760 | 572 ft | 11 kts | 46° |
| 2026-05-04 17:55 | 43.68331 | -79.64674 | 569 ft | 14 kts | 46° |
| 2026-05-04 17:55 | 43.68406 | -79.64565 | 564 ft | 17 kts | 46° |
| 2026-05-04 17:55 | 43.68487 | -79.64446 | 565 ft | 18 kts | 46° |
| 2026-05-04 17:55 | 43.68576 | -79.64317 | 568 ft | 19 kts | 46° |
| 2026-05-04 17:56 | 43.68664 | -79.64189 | 570 ft | 18 kts | 46° |
| 2026-05-04 17:56 | 43.68753 | -79.64060 | 572 ft | 18 kts | 46° |
| 2026-05-04 17:56 | 43.68837 | -79.63940 | 573 ft | 17 kts | 46° |
| 2026-05-04 17:56 | 43.68925 | -79.63815 | 572 ft | 19 kts | 46° |
| 2026-05-04 17:57 | 43.69014 | -79.63682 | 566 ft | 19 kts | 53° |
| 2026-05-04 17:57 | 43.68977 | -79.63541 | 565 ft | 17 kts | 137° |
| 2026-05-04 17:57 | 43.68892 | -79.63435 | 564 ft | 17 kts | 138° |
| 2026-05-04 17:57 | 43.68801 | -79.63316 | 562 ft | 19 kts | 135° |
| 2026-05-04 17:58 | 43.68706 | -79.63189 | 563 ft | 20 kts | 136° |
| 2026-05-04 17:58 | 43.68604 | -79.63054 | 560 ft | 21 kts | 136° |
| 2026-05-04 17:58 | 43.68500 | -79.62920 | 564 ft | 20 kts | 137° |
| 2026-05-04 17:58 | 43.68424 | -79.62808 | 563 ft | 6 kts | 105° |
| 2026-05-04 17:59 | 43.68423 | -79.62796 | 561 ft | 0 kts | 94° |
| 2026-05-04 18:00 | 43.68422 | -79.62787 | 561 ft | 2 kts | 87° |
| 2026-05-04 18:00 | 43.68434 | -79.62750 | 565 ft | 6 kts | 50° |
| 2026-05-04 18:00 | 43.68475 | -79.62689 | 566 ft | 12 kts | 47° |
| 2026-05-04 18:01 | 43.68535 | -79.62588 | 565 ft | 15 kts | 51° |
| 2026-05-04 18:01 | 43.68603 | -79.62484 | 563 ft | 15 kts | 51° |
| 2026-05-04 18:01 | 43.68672 | -79.62381 | 562 ft | 14 kts | 11° |
| 2026-05-04 18:02 | 43.68776 | -79.62269 | 560 ft | 5 kts | 97° |
| 2026-05-04 18:02 | 43.68774 | -79.62258 | 560 ft | 0 kts | 101° |